createdAt,value
2019-04-30T00:02:08.307Z,12.35
2019-04-30T00:04:45.230Z,12.35
2019-04-30T00:07:19.175Z,12.37
2019-04-30T00:09:53.897Z,12.41
2019-04-30T00:12:30.855Z,12.44
2019-04-30T00:15:11.040Z,12.44
2019-04-30T00:17:53.006Z,12.41
2019-04-30T00:20:37.199Z,12.37
2019-04-30T00:23:11.745Z,12.41
2019-04-30T00:25:45.965Z,12.45
2019-04-30T00:28:18.622Z,12.48
2019-04-30T00:30:51.016Z,12.51
2019-04-30T00:33:27.498Z,12.53
2019-04-30T00:36:00.287Z,12.58
2019-04-30T00:38:36.077Z,12.54
2019-04-30T00:41:10.844Z,12.56
2019-04-30T00:43:49.671Z,12.57
2019-04-30T00:46:28.765Z,12.58
2019-04-30T00:49:09.302Z,12.54
2019-04-30T00:51:49.865Z,12.54
2019-04-30T00:54:30.514Z,12.54
2019-04-30T00:57:07.379Z,12.55
2019-04-30T00:59:44.618Z,12.54
2019-04-30T01:02:35.648Z,12.65
2019-04-30T01:05:11.869Z,12.66
2019-04-30T01:07:48.696Z,12.65
2019-04-30T01:10:28.293Z,12.66
2019-04-30T01:13:08.020Z,12.64
2019-04-30T01:15:48.954Z,12.65
2019-04-30T01:18:28.556Z,12.64
2019-04-30T01:21:09.009Z,12.70
2019-04-30T01:23:51.739Z,12.70
2019-04-30T01:26:30.950Z,12.69
2019-04-30T01:29:04.132Z,12.69
2019-04-30T01:31:40.668Z,12.68
2019-04-30T01:34:14.111Z,12.67
2019-04-30T01:36:50.731Z,12.64
2019-04-30T01:39:28.448Z,12.57
2019-04-30T01:42:07.885Z,12.49
2019-04-30T01:44:50.377Z,12.46
2019-04-30T01:47:27.802Z,12.44
2019-04-30T01:50:04.906Z,12.42
2019-04-30T01:52:43.469Z,12.48
2019-04-30T01:55:16.886Z,12.45
2019-04-30T01:58:02.454Z,12.40
2019-04-30T02:00:39.975Z,12.34
2019-04-30T02:03:12.588Z,12.44
2019-04-30T02:05:45.404Z,12.38
2019-04-30T02:08:19.512Z,12.40
2019-04-30T02:10:52.205Z,12.38
2019-04-30T02:13:25.092Z,12.43
2019-04-30T02:15:59.279Z,12.49
2019-04-30T02:18:31.974Z,12.53
2019-04-30T02:21:05.649Z,12.64
2019-04-30T02:23:39.250Z,12.65
2019-04-30T02:26:12.591Z,12.66
2019-04-30T02:28:46.265Z,12.66
2019-04-30T02:31:22.311Z,12.67
2019-04-30T02:34:09.996Z,12.66
2019-04-30T02:36:51.389Z,12.61
2019-04-30T02:39:23.964Z,12.52
2019-04-30T02:41:59.743Z,12.45
2019-04-30T02:44:33.078Z,12.53
2019-04-30T02:47:05.934Z,12.50
2019-04-30T02:49:39.829Z,12.43
2019-04-30T02:52:13.014Z,12.42
2019-04-30T02:54:46.239Z,12.43
2019-04-30T02:57:20.431Z,12.43
2019-04-30T03:00:06.476Z,12.45
2019-04-30T03:02:40.136Z,12.53
2019-04-30T03:05:14.113Z,12.51
2019-04-30T03:07:46.855Z,12.47
2019-04-30T03:10:19.964Z,12.38
2019-04-30T03:12:52.931Z,12.38
2019-04-30T03:15:29.587Z,12.42
2019-04-30T03:18:09.864Z,12.45
2019-04-30T03:20:51.333Z,12.47
2019-04-30T03:23:23.835Z,12.49
2019-04-30T03:25:56.879Z,12.49
2019-04-30T03:28:30.105Z,12.50
2019-04-30T03:31:04.537Z,12.50
2019-04-30T03:33:42.399Z,12.50
2019-04-30T03:36:15.748Z,12.46
2019-04-30T03:38:50.169Z,12.43
2019-04-30T03:41:23.254Z,12.42
2019-04-30T03:43:56.006Z,12.42
2019-04-30T03:46:29.826Z,12.42
2019-04-30T03:49:02.700Z,12.42
2019-04-30T03:51:35.232Z,12.44
2019-04-30T03:54:10.010Z,12.43
2019-04-30T03:56:43.763Z,12.39
2019-04-30T03:59:16.470Z,12.34
2019-04-30T04:02:02.761Z,12.33
2019-04-30T04:04:43.459Z,12.42
2019-04-30T04:07:36.007Z,12.41
2019-04-30T04:10:25.987Z,12.48
2019-04-30T04:12:59.688Z,12.44
2019-04-30T04:15:32.955Z,12.50
2019-04-30T04:18:05.591Z,12.53
2019-04-30T04:20:39.557Z,12.45
2019-04-30T04:23:15.992Z,12.40
2019-04-30T04:25:49.801Z,12.37
2019-04-30T04:28:22.826Z,12.37
2019-04-30T04:30:55.785Z,12.34
2019-04-30T04:33:29.688Z,12.31
2019-04-30T04:36:02.372Z,12.31
2019-04-30T04:38:35.736Z,12.30
2019-04-30T04:41:10.301Z,12.30
2019-04-30T04:43:43.345Z,12.33
2019-04-30T04:46:16.186Z,12.35
2019-04-30T04:48:50.413Z,12.38
2019-04-30T04:51:34.482Z,12.36
2019-04-30T04:54:11.590Z,12.32
2019-04-30T04:56:44.335Z,12.33
2019-04-30T04:59:19.957Z,12.34
2019-04-30T05:01:52.879Z,12.43
2019-04-30T05:04:26.554Z,12.50
2019-04-30T05:07:00.038Z,12.50
2019-04-30T05:09:32.716Z,12.48
2019-04-30T05:12:08.540Z,12.50
2019-04-30T05:14:41.835Z,12.50
2019-04-30T05:17:15.112Z,12.48
2019-04-30T05:19:48.726Z,12.53
2019-04-30T05:22:22.777Z,12.51
2019-04-30T05:24:56.078Z,12.50
2019-04-30T05:27:30.327Z,12.49
2019-04-30T05:30:05.514Z,12.49
2019-04-30T05:32:39.054Z,12.50
2019-04-30T05:35:12.464Z,12.53
2019-04-30T05:37:44.977Z,12.59
2019-04-30T05:40:18.832Z,12.67
2019-04-30T05:42:51.615Z,12.66
2019-04-30T05:45:25.076Z,12.72
2019-04-30T05:47:58.744Z,12.68
2019-04-30T05:50:32.286Z,12.60
2019-04-30T05:53:05.764Z,12.56
2019-04-30T05:55:39.523Z,12.53
2019-04-30T05:58:13.650Z,12.51
2019-04-30T06:00:46.946Z,12.49
2019-04-30T06:03:29.927Z,12.54
2019-04-30T06:06:05.336Z,12.46
2019-04-30T06:08:49.158Z,12.46
2019-04-30T06:11:29.246Z,12.46
2019-04-30T06:14:08.749Z,12.58
2019-04-30T06:16:41.440Z,12.67
2019-04-30T06:19:15.604Z,12.82
2019-04-30T06:21:49.159Z,12.90
2019-04-30T06:24:21.736Z,12.95
2019-04-30T06:26:54.439Z,12.93
2019-04-30T06:29:29.021Z,12.79
2019-04-30T06:32:03.579Z,12.70
2019-04-30T06:34:36.371Z,12.72
2019-04-30T06:37:09.717Z,12.75
2019-04-30T06:39:43.133Z,12.77
2019-04-30T06:42:16.169Z,12.73
2019-04-30T06:44:49.668Z,12.75
2019-04-30T06:47:32.423Z,12.75
2019-04-30T06:50:09.284Z,12.77
2019-04-30T06:52:53.991Z,12.78
2019-04-30T06:55:35.750Z,12.78
2019-04-30T06:58:15.075Z,12.86
2019-04-30T07:00:49.756Z,12.81
2019-04-30T07:03:25.698Z,12.89
2019-04-30T07:05:59.288Z,12.86
2019-04-30T07:08:42.452Z,12.94
2019-04-30T07:11:23.843Z,13.08
2019-04-30T07:13:56.327Z,13.16
2019-04-30T07:16:29.948Z,13.20
2019-04-30T07:19:02.630Z,13.22
2019-04-30T07:21:36.592Z,13.27
2019-04-30T07:24:15.019Z,13.34
2019-04-30T07:26:49.050Z,13.49
2019-04-30T07:29:22.473Z,13.63
2019-04-30T07:31:55.255Z,13.78
2019-04-30T07:34:31.710Z,13.85
2019-04-30T07:37:20.526Z,14.00
2019-04-30T07:39:59.226Z,14.09
2019-04-30T07:42:38.221Z,14.09
2019-04-30T07:45:18.791Z,14.02
2019-04-30T07:47:53.594Z,14.05
2019-04-30T07:50:30.518Z,14.11
2019-04-30T07:53:06.402Z,14.15
2019-04-30T07:55:39.907Z,14.24
2019-04-30T07:58:13.679Z,14.36
2019-04-30T08:00:46.384Z,14.53
2019-04-30T08:03:38.737Z,14.60
2019-04-30T08:06:12.783Z,14.68
2019-04-30T08:08:46.167Z,14.76
2019-04-30T08:11:25.653Z,14.86
2019-04-30T08:14:00.356Z,14.93
2019-04-30T08:16:33.245Z,14.98
2019-04-30T08:19:09.145Z,15.04
2019-04-30T08:21:42.543Z,15.03
2019-04-30T08:24:15.148Z,15.18
2019-04-30T08:29:11.757Z,15.46
2019-04-30T08:31:45.899Z,15.62
2019-04-30T08:34:25.518Z,15.76
2019-04-30T08:37:12.830Z,15.91
2019-04-30T08:40:03.451Z,16.04
2019-04-30T08:42:38.411Z,16.14
2019-04-30T08:45:20.600Z,16.22
2019-04-30T08:47:55.836Z,16.28
2019-04-30T08:50:32.210Z,16.39
2019-04-30T08:53:05.713Z,16.49
2019-04-30T08:55:39.111Z,16.63
2019-04-30T08:58:15.125Z,16.76
2019-04-30T09:00:49.251Z,16.79
2019-04-30T09:03:22.286Z,16.79
2019-04-30T09:06:04.239Z,16.81
2019-04-30T09:08:39.921Z,16.84
2019-04-30T09:11:25.292Z,16.86
2019-04-30T09:14:03.001Z,16.95
2019-04-30T09:16:35.998Z,17.01
2019-04-30T09:19:09.754Z,17.03
2019-04-30T09:21:44.331Z,17.18
2019-04-30T09:24:19.077Z,17.24
2019-04-30T09:26:51.944Z,17.29
2019-04-30T09:29:25.190Z,17.50
2019-04-30T09:31:59.393Z,17.67
2019-04-30T09:34:33.323Z,17.76
2019-04-30T09:37:05.931Z,17.86
2019-04-30T09:39:39.578Z,17.89
2019-04-30T09:42:12.117Z,17.97
2019-04-30T09:44:44.746Z,18.05
2019-04-30T09:47:20.122Z,18.19
2019-04-30T09:49:54.331Z,18.41
2019-04-30T09:52:30.220Z,18.54
2019-04-30T09:55:04.974Z,18.69
2019-04-30T09:57:39.027Z,18.86
2019-04-30T10:00:14.526Z,19.08
2019-04-30T10:02:48.906Z,19.28
2019-04-30T10:05:21.740Z,19.49
2019-04-30T10:07:56.014Z,19.74
2019-04-30T10:10:36.603Z,20.00
2019-04-30T10:13:11.911Z,20.20
2019-04-30T10:16:03.931Z,20.30
2019-04-30T10:18:39.131Z,20.30
2019-04-30T10:21:12.644Z,20.50
2019-04-30T10:23:47.035Z,20.58
2019-04-30T10:26:20.603Z,20.77
2019-04-30T10:28:58.391Z,20.75
2019-04-30T10:31:33.399Z,20.85
2019-04-30T10:34:06.014Z,21.05
2019-04-30T10:36:41.413Z,21.22
2019-04-30T10:39:15.725Z,21.45
2019-04-30T10:41:49.797Z,21.69
2019-04-30T10:44:23.404Z,21.95
2019-04-30T10:46:56.246Z,22.15
2019-04-30T10:49:29.552Z,22.36
2019-04-30T10:52:03.344Z,22.61
2019-04-30T10:54:36.301Z,22.86
2019-04-30T10:57:09.031Z,23.04
2019-04-30T10:59:42.314Z,23.26
2019-04-30T11:02:18.555Z,23.38
2019-04-30T11:04:52.311Z,23.45
2019-04-30T11:07:25.575Z,23.63
2019-04-30T11:09:59.322Z,23.56
2019-04-30T11:12:32.074Z,23.64
2019-04-30T11:15:07.316Z,23.56
2019-04-30T11:17:43.212Z,23.73
2019-04-30T11:20:22.272Z,24.05
2019-04-30T11:22:56.655Z,24.27
2019-04-30T11:25:32.879Z,24.34
2019-04-30T11:28:07.133Z,24.49
2019-04-30T11:30:46.055Z,24.62
2019-04-30T11:33:19.164Z,24.75
2019-04-30T11:36:02.029Z,24.91
2019-04-30T11:38:38.899Z,25.15
2019-04-30T11:41:10.745Z,25.30
2019-04-30T11:43:44.382Z,25.21
2019-04-30T11:47:23.410Z,25.30
2019-04-30T11:50:12.453Z,25.63
2019-04-30T11:52:46.380Z,25.58
2019-04-30T11:55:19.853Z,25.53
2019-04-30T11:57:54.245Z,25.59
2019-04-30T12:00:35.770Z,25.67
2019-04-30T12:03:11.495Z,26.02
2019-04-30T12:05:44.452Z,26.06
2019-04-30T12:08:26.283Z,26.27
2019-04-30T12:11:07.131Z,26.40
2019-04-30T12:13:49.941Z,26.52
2019-04-30T12:16:24.406Z,26.65
2019-04-30T12:19:00.684Z,26.75
2019-04-30T12:21:33.420Z,26.63
2019-04-30T12:24:06.503Z,26.63
2019-04-30T12:26:39.970Z,26.52
2019-04-30T12:29:13.448Z,26.56
2019-04-30T12:31:47.603Z,26.44
2019-04-30T12:34:21.749Z,26.39
2019-04-30T12:36:54.332Z,26.49
2019-04-30T12:39:35.416Z,26.80
2019-04-30T12:42:11.803Z,27.08
2019-04-30T12:44:45.251Z,27.10
2019-04-30T12:47:21.738Z,27.20
2019-04-30T12:50:09.527Z,27.09
2019-04-30T12:53:03.257Z,27.11
2019-04-30T12:56:00.419Z,27.02
2019-04-30T12:58:34.451Z,27.01
2019-04-30T13:01:08.959Z,26.92
2019-04-30T13:03:43.008Z,27.03
2019-04-30T13:06:17.931Z,27.16
2019-04-30T13:08:54.779Z,27.18
2019-04-30T13:11:30.608Z,27.23
2019-04-30T13:14:04.961Z,27.29
2019-04-30T13:16:39.246Z,26.95
2019-04-30T13:19:11.879Z,26.82
2019-04-30T13:21:44.526Z,26.61
2019-04-30T13:24:17.533Z,26.59
2019-04-30T13:26:50.850Z,26.89
2019-04-30T13:29:32.378Z,27.07
2019-04-30T13:32:08.756Z,27.27
2019-04-30T13:34:49.322Z,27.39
2019-04-30T13:37:29.355Z,27.53
2019-04-30T13:40:14.556Z,27.38
2019-04-30T13:42:49.588Z,27.30
2019-04-30T13:45:23.559Z,27.29
2019-04-30T13:47:58.883Z,27.33
2019-04-30T13:50:32.648Z,27.37
2019-04-30T13:53:05.730Z,27.49
2019-04-30T13:55:45.640Z,27.57
2019-04-30T13:58:19.584Z,27.64
2019-04-30T14:00:53.613Z,27.61
2019-04-30T14:03:39.913Z,27.17
2019-04-30T14:06:22.976Z,26.42
2019-04-30T14:09:03.505Z,25.88
2019-04-30T14:11:36.089Z,25.45
2019-04-30T14:14:08.727Z,25.52
2019-04-30T14:16:43.845Z,25.73
2019-04-30T14:19:19.563Z,25.96
2019-04-30T14:21:52.046Z,26.07
2019-04-30T14:24:26.612Z,26.13
2019-04-30T14:26:59.169Z,25.99
2019-04-30T14:29:31.817Z,25.79
2019-04-30T14:32:04.988Z,25.94
2019-04-30T14:34:39.546Z,26.20
2019-04-30T14:37:13.176Z,26.42
2019-04-30T14:39:48.647Z,26.65
2019-04-30T14:42:24.253Z,26.68
2019-04-30T14:45:12.798Z,26.49
2019-04-30T14:48:00.519Z,26.26
2019-04-30T14:50:34.725Z,26.15
2019-04-30T14:53:24.132Z,26.07
2019-04-30T14:56:12.660Z,26.12
2019-04-30T14:59:06.141Z,26.05
2019-04-30T15:01:49.094Z,25.91
2019-04-30T15:04:24.205Z,26.05
2019-04-30T15:06:58.461Z,25.96
2019-04-30T15:09:31.464Z,25.90
2019-04-30T15:12:04.616Z,25.90
2019-04-30T15:14:38.797Z,26.04
2019-04-30T15:17:15.215Z,26.16
2019-04-30T15:19:49.361Z,25.99
2019-04-30T15:22:30.643Z,25.69
2019-04-30T15:25:04.507Z,25.05
2019-04-30T15:27:45.175Z,24.73
2019-04-30T15:30:24.394Z,24.67
2019-04-30T15:33:10.866Z,24.72
2019-04-30T15:35:44.742Z,24.92
2019-04-30T15:38:56.983Z,25.06
2019-04-30T15:41:32.678Z,25.30
2019-04-30T15:44:07.613Z,25.45
2019-04-30T15:46:44.154Z,25.38
2019-04-30T15:49:18.395Z,25.25
2019-04-30T15:51:50.962Z,25.02
2019-04-30T15:54:25.689Z,24.63
2019-04-30T15:57:00.467Z,24.32
2019-04-30T15:59:47.821Z,24.24
2019-04-30T16:02:53.705Z,24.20
2019-04-30T16:05:36.212Z,24.03
2019-04-30T16:08:29.124Z,23.60
2019-04-30T16:11:23.221Z,23.34
2019-04-30T16:14:15.260Z,23.17
2019-04-30T16:17:03.498Z,23.07
2019-04-30T16:19:36.072Z,23.02
2019-04-30T16:22:10.251Z,22.92
2019-04-30T16:24:43.852Z,22.92
2019-04-30T16:27:19.181Z,22.91
2019-04-30T16:29:52.953Z,22.88
2019-04-30T16:32:26.270Z,22.75
2019-04-30T16:34:59.411Z,22.59
2019-04-30T16:37:32.301Z,22.53
2019-04-30T16:40:05.070Z,22.36
2019-04-30T16:42:38.986Z,22.26
2019-04-30T16:45:13.343Z,22.09
2019-04-30T16:47:46.130Z,21.96
2019-04-30T16:50:19.167Z,21.94
2019-04-30T16:52:52.632Z,21.80
2019-04-30T16:55:26.073Z,21.73
2019-04-30T16:58:01.533Z,21.74
2019-04-30T17:00:36.629Z,21.69
2019-04-30T17:03:23.671Z,21.53
2019-04-30T17:06:05.896Z,21.44
2019-04-30T17:08:45.068Z,21.40
2019-04-30T17:11:30.252Z,21.16
2019-04-30T17:14:05.882Z,21.01
2019-04-30T17:16:42.750Z,20.84
2019-04-30T17:19:18.981Z,20.75
2019-04-30T17:21:52.984Z,20.70
2019-04-30T17:24:30.097Z,20.61
2019-04-30T17:27:16.503Z,20.53
2019-04-30T17:29:57.661Z,20.52
2019-04-30T17:32:30.495Z,20.46
2019-04-30T17:35:08.911Z,20.32
2019-04-30T17:37:44.641Z,20.20
2019-04-30T17:40:19.262Z,20.12
2019-04-30T17:42:55.060Z,20.10
2019-04-30T17:45:29.840Z,20.09
2019-04-30T17:48:03.301Z,19.99
2019-04-30T17:50:36.515Z,19.90
2019-04-30T17:53:09.445Z,19.77
2019-04-30T17:55:43.507Z,19.59
2019-04-30T17:58:15.549Z,19.40
2019-04-30T18:00:53.974Z,19.14
2019-04-30T18:03:28.948Z,18.84
2019-04-30T18:06:02.556Z,18.70
2019-04-30T18:08:39.812Z,18.53
2019-04-30T18:11:13.608Z,18.45
2019-04-30T18:13:51.185Z,18.44
2019-04-30T18:16:23.765Z,18.27
2019-04-30T18:19:15.108Z,18.22
2019-04-30T18:21:54.719Z,18.13
2019-04-30T18:24:46.717Z,17.98
2019-04-30T18:27:25.415Z,18.02
2019-04-30T18:30:00.425Z,18.00
2019-04-30T18:32:42.844Z,17.86
2019-04-30T18:35:18.641Z,17.72
2019-04-30T18:37:55.969Z,17.60
2019-04-30T18:40:33.157Z,17.52
2019-04-30T18:43:07.402Z,17.41
2019-04-30T18:45:42.124Z,17.29
2019-04-30T18:48:14.512Z,17.19
2019-04-30T18:50:51.776Z,17.09
2019-04-30T18:53:28.469Z,16.98
2019-04-30T18:56:04.250Z,16.90
2019-04-30T18:58:42.937Z,16.80
2019-04-30T19:01:17.554Z,16.68
2019-04-30T19:03:51.752Z,16.54
2019-04-30T19:06:26.459Z,16.44
2019-04-30T19:09:05.169Z,16.41
2019-04-30T19:12:11.135Z,16.36
2019-04-30T19:15:07.919Z,16.29
2019-04-30T19:18:12.256Z,16.32
2019-04-30T19:20:49.645Z,16.18
2019-04-30T19:23:23.067Z,16.11
2019-04-30T19:25:56.117Z,16.05
2019-04-30T19:28:30.915Z,16.00
2019-04-30T19:31:09.224Z,15.95
2019-04-30T19:33:45.930Z,15.90
2019-04-30T19:36:21.013Z,15.88
2019-04-30T19:38:59.887Z,15.82
2019-04-30T19:41:32.868Z,15.80
2019-04-30T19:44:05.904Z,15.79
2019-04-30T19:46:39.618Z,15.77
2019-04-30T19:49:14.647Z,15.71
2019-04-30T19:51:49.527Z,15.69
2019-04-30T19:54:28.932Z,15.63
2019-04-30T19:57:03.551Z,15.55
2019-04-30T19:59:41.134Z,15.46
2019-04-30T20:02:29.481Z,15.41
2019-04-30T20:05:08.995Z,15.37
2019-04-30T20:07:55.216Z,15.45
2019-04-30T20:10:30.650Z,15.31
2019-04-30T20:13:05.684Z,15.23
2019-04-30T20:15:40.435Z,15.20
2019-04-30T20:18:14.680Z,15.15
2019-04-30T20:20:55.690Z,15.12
2019-04-30T20:23:29.992Z,15.07
2019-04-30T20:26:02.742Z,14.99
2019-04-30T20:28:41.407Z,14.94
2019-04-30T20:31:19.019Z,14.90
2019-04-30T20:33:59.128Z,14.85
2019-04-30T20:36:36.190Z,14.78
2019-04-30T20:39:20.186Z,14.72
2019-04-30T20:41:54.341Z,14.68
2019-04-30T20:44:36.411Z,14.62
2019-04-30T20:47:09.697Z,14.53
2019-04-30T20:49:43.614Z,14.49
2019-04-30T20:52:18.981Z,14.42
2019-04-30T20:55:10.816Z,14.37
2019-04-30T20:57:49.416Z,14.32
2019-04-30T21:00:25.371Z,14.27
2019-04-30T21:02:59.898Z,14.23
2019-04-30T21:05:34.978Z,14.18
2019-04-30T21:08:10.189Z,14.17
2019-04-30T21:10:43.575Z,14.16
2019-04-30T21:13:16.716Z,14.12
2019-04-30T21:15:56.414Z,14.09
2019-04-30T21:18:32.524Z,14.06
2019-04-30T21:21:05.695Z,14.05
2019-04-30T21:23:39.465Z,14.04
2019-04-30T21:26:14.647Z,14.00
2019-04-30T21:28:49.619Z,13.96
2019-04-30T21:31:27.826Z,13.94
2019-04-30T21:34:13.835Z,13.90
2019-04-30T21:36:49.199Z,13.85
2019-04-30T21:39:23.821Z,13.81
2019-04-30T21:41:59.457Z,13.89
2019-04-30T21:44:33.516Z,13.81
2019-04-30T21:47:07.319Z,13.77
2019-04-30T21:49:40.527Z,13.82
2019-04-30T21:52:13.180Z,13.72
2019-04-30T21:54:46.326Z,13.62
2019-04-30T21:57:19.620Z,13.60
2019-04-30T21:59:55.428Z,13.54
2019-04-30T22:02:28.818Z,13.51
2019-04-30T22:05:03.564Z,13.49
2019-04-30T22:07:36.240Z,13.43
2019-04-30T22:10:09.183Z,13.56
2019-04-30T22:12:42.312Z,13.46
2019-04-30T22:15:17.492Z,13.39
2019-04-30T22:17:50.198Z,13.41
2019-04-30T22:20:23.323Z,13.38
2019-04-30T22:22:58.868Z,13.21
2019-04-30T22:25:31.487Z,13.10
2019-04-30T22:28:04.282Z,13.08
2019-04-30T22:30:38.268Z,13.06
2019-04-30T22:33:11.785Z,12.98
2019-04-30T22:35:59.348Z,12.90
2019-04-30T22:38:39.047Z,12.82
2019-04-30T22:41:12.697Z,12.77
2019-04-30T22:43:46.117Z,12.74
2019-04-30T22:46:19.704Z,12.69
2019-04-30T22:48:54.058Z,12.63
2019-04-30T22:51:26.904Z,12.72
2019-04-30T22:53:59.530Z,12.79
2019-04-30T22:56:32.060Z,12.66
2019-04-30T22:59:07.700Z,12.70
2019-04-30T23:01:46.798Z,12.55
2019-04-30T23:04:33.403Z,12.49
2019-04-30T23:07:06.197Z,12.41
2019-04-30T23:09:39.276Z,12.39
2019-04-30T23:12:12.581Z,12.50
2019-04-30T23:14:47.069Z,12.39
2019-04-30T23:17:21.289Z,12.31
2019-04-30T23:19:55.414Z,12.24
2019-04-30T23:22:28.460Z,12.21
2019-04-30T23:25:01.664Z,12.13
2019-04-30T23:27:37.578Z,12.15
2019-04-30T23:30:10.359Z,12.15
2019-04-30T23:32:43.515Z,12.03
2019-04-30T23:35:16.688Z,11.95
2019-04-30T23:37:49.995Z,11.91
2019-04-30T23:40:27.228Z,11.90
2019-04-30T23:43:00.767Z,11.90
2019-04-30T23:45:33.319Z,11.86
2019-04-30T23:48:06.248Z,11.85
2019-04-30T23:50:38.732Z,11.77
2019-04-30T23:53:11.959Z,11.68
2019-04-30T23:55:45.047Z,11.61
2019-04-30T23:58:17.664Z,11.56
